Time;durP1;ratioP1;P1;durP2;ratioP2;P2;SDS_P1;SDS_P2;PMS_P1;PMS_P2;Temp;Humidity;BMP_temperature;BMP_pressure;BME280_temperature;BME280_humidity;BME280_pressure;Samples;Min_cycle;Max_cycle;Signal;HPM_P1;HPM_P2
2022/11/24 00:01:03;;;;;;;;;;;;;;;26.98;49.76;95876.72;607832;233;65405;-65
2022/11/24 00:03:30;;;;;;;;;;;;;;;26.97;50.70;95875.13;607661;233;65086;-64
2022/11/24 00:05:59;;;;;;;;;;;;;;;26.97;50.92;95879.73;607906;233;67218;-64
2022/11/24 00:08:27;;;;;;;;;;;;;;;26.95;49.61;95882.75;607808;233;64953;-64
2022/11/24 00:10:54;;;;;;;;;;;;;;;26.95;51.73;95877.36;607880;233;62918;-64
2022/11/24 00:13:22;;;;;;;;;;;;;;;26.93;51.56;95882.33;607875;233;67322;-64
2022/11/24 00:15:49;;;;;;;;;;;;;;;26.93;49.28;95878.84;607896;233;64630;-64
2022/11/24 00:18:17;;;;;;;;;;;;;;;26.94;52.24;95883.11;607915;233;62997;-64
2022/11/24 00:20:46;;;;;;;;;;;;;;;26.91;50.19;95883.78;607876;233;64567;-64
2022/11/24 00:23:13;;;;;;;;;;;;;;;26.91;50.92;95881.09;607706;233;64700;-64
2022/11/24 00:25:40;;;;;;;;;;;;;;;26.90;51.67;95883.00;607884;233;63823;-64
2022/11/24 00:28:08;;;;;;;;;;;;;;;26.89;49.53;95886.02;607899;233;67246;-63
2022/11/24 00:30:35;;;;;;;;;;;;;;;26.88;51.77;95884.45;607871;233;66899;-63
2022/11/24 00:33:03;;;;;;;;;;;;;;;26.87;50.95;95885.56;607880;233;62913;-63
2022/11/24 00:35:30;;;;;;;;;;;;;;;26.85;48.76;95888.61;607888;233;64769;-63
2022/11/24 00:37:58;;;;;;;;;;;;;;;26.86;48.71;95889.39;607890;233;64786;-63
2022/11/24 00:40:25;;;;;;;;;;;;;;;26.85;53.03;95887.83;607869;233;63811;-63
2022/11/24 00:42:53;;;;;;;;;;;;;;;26.84;50.42;95886.23;607915;233;67035;-63
2022/11/24 00:45:20;;;;;;;;;;;;;;;26.84;50.24;95891.63;607966;233;66834;-63
2022/11/24 00:47:47;;;;;;;;;;;;;;;26.82;50.98;95883.89;607871;233;65051;-63
2022/11/24 00:50:16;;;;;;;;;;;;;;;26.81;52.06;95892.30;607889;233;64678;-64
2022/11/24 00:52:44;;;;;;;;;;;;;;;26.81;51.39;95886.91;607924;233;66999;-63
2022/11/24 00:55:11;;;;;;;;;;;;;;;26.79;51.51;95889.94;607903;233;65061;-63
2022/11/24 00:57:39;;;;;;;;;;;;;;;26.78;51.58;95891.84;607980;233;64563;-63
2022/11/24 01:00:07;;;;;;;;;;;;;;;26.77;49.74;95890.28;607898;233;66837;-63
2022/11/24 01:02:36;;;;;;;;;;;;;;;26.77;52.50;95898.38;607933;233;46211;-63
2022/11/24 01:05:04;;;;;;;;;;;;;;;26.76;51.90;95891.42;607923;233;67048;-63
2022/11/24 01:07:32;;;;;;;;;;;;;;;26.74;50.12;95899.05;607937;233;66535;-63
2022/11/24 01:09:59;;;;;;;;;;;;;;;26.74;49.41;95899.05;607963;233;63029;-63
2022/11/24 01:12:28;;;;;;;;;;;;;;;26.75;51.33;95899.83;607968;233;64567;-63
2022/11/24 01:14:55;;;;;;;;;;;;;;;26.75;51.29;95894.44;607868;233;67058;-63
2022/11/24 01:17:23;;;;;;;;;;;;;;;26.72;48.26;95889.72;607911;233;65200;-63
2022/11/24 01:19:50;;;;;;;;;;;;;;;26.72;51.38;95887.80;607922;233;66934;-63
2022/11/24 01:22:18;;;;;;;;;;;;;;;26.72;50.91;95892.41;607898;233;66704;-63
2022/11/24 01:24:45;;;;;;;;;;;;;;;26.70;49.34;95886.56;607958;233;65016;-63
2022/11/24 01:27:13;;;;;;;;;;;;;;;26.70;49.99;95892.73;607907;233;64681;-63
2022/11/24 01:29:40;;;;;;;;;;;;;;;26.70;51.15;95889.27;607919;233;66781;-63
2022/11/24 01:32:08;;;;;;;;;;;;;;;26.68;51.42;95889.61;607896;233;64968;-63
2022/11/24 01:34:35;;;;;;;;;;;;;;;26.68;50.34;95895.00;604247;233;66710;-63
2022/11/24 01:37:03;;;;;;;;;;;;;;;26.68;52.84;95884.22;604222;235;67005;-63
2022/11/24 01:39:30;;;;;;;;;;;;;;;26.68;51.93;95894.19;604189;235;65140;-63
2022/11/24 01:41:59;;;;;;;;;;;;;;;26.67;51.34;95887.23;604153;235;67196;-63
2022/11/24 01:44:28;;;;;;;;;;;;;;;26.65;52.05;95890.25;604208;235;67545;-63
2022/11/24 01:47:00;;;;;;;;;;;;;;;26.65;51.70;95892.17;604196;235;65135;-64
2022/11/24 01:49:30;;;;;;;;;;;;;;;26.63;49.69;95889.02;604233;235;64750;-65
2022/11/24 01:52:01;;;;;;;;;;;;;;;26.63;52.07;95889.02;604028;234;66770;-63
2022/11/24 01:54:30;;;;;;;;;;;;;;;26.62;51.82;95895.53;604008;234;62855;-64
2022/11/24 01:56:59;;;;;;;;;;;;;;;26.61;51.95;95894.75;604193;232;64671;-64
2022/11/24 01:59:27;;;;;;;;;;;;;;;26.61;51.18;95902.05;604199;235;64584;-64
2022/11/24 02:01:56;;;;;;;;;;;;;;;26.59;51.91;95902.38;604200;235;65015;-64
2022/11/24 02:04:25;;;;;;;;;;;;;;;26.57;49.83;95901.91;604201;235;66889;-64
2022/11/24 02:06:54;;;;;;;;;;;;;;;26.57;50.61;95901.91;604164;235;64409;-64
2022/11/24 02:09:32;;;;;;;;;;;;;;;26.55;50.64;95896.88;604217;235;65037;-64
2022/11/24 02:12:00;;;;;;;;;;;;;;;26.56;50.87;95898.44;604178;235;66899;-63
2022/11/24 02:14:28;;;;;;;;;;;;;;;26.54;49.43;95902.59;604195;235;66800;-64
2022/11/24 02:16:55;;;;;;;;;;;;;;;26.54;48.29;95906.06;604225;235;65105;-64
2022/11/24 02:19:42;;;;;;;;;;;;;;;26.52;48.89;95902.16;604172;235;67188;-64
2022/11/24 02:22:14;;;;;;;;;;;;;;;26.53;50.94;95904.50;604214;235;66518;-64
2022/11/24 02:24:49;;;;;;;;;;;;;;;26.53;52.18;95898.33;604025;234;62984;-64
2022/11/24 02:27:18;;;;;;;;;;;;;;;26.50;50.22;95904.36;604193;235;66922;-65
2022/11/24 02:29:45;;;;;;;;;;;;;;;26.50;52.25;95899.75;604146;235;66931;-64
2022/11/24 02:32:15;;;;;;;;;;;;;;;26.49;51.51;95897.38;604168;234;65790;-65
2022/11/24 02:34:42;;;;;;;;;;;;;;;26.48;50.77;95898.52;604238;235;66874;-65
2022/11/24 02:37:10;;;;;;;;;;;;;;;26.48;49.34;95898.52;604202;235;66907;-65
2022/11/24 02:39:37;;;;;;;;;;;;;;;26.46;52.62;95893.44;604181;235;65123;-65
2022/11/24 02:42:06;;;;;;;;;;;;;;;26.45;50.69;95885.71;604159;235;64756;-65
2022/11/24 02:44:35;;;;;;;;;;;;;;;26.45;50.99;95902.66;604181;235;66911;-64
2022/11/24 02:47:07;;;;;;;;;;;;;;;26.45;50.14;95896.48;604264;235;65064;-65
2022/11/24 02:49:35;;;;;;;;;;;;;;;26.44;49.29;95900.31;604153;235;66756;-64
2022/11/24 02:52:03;;;;;;;;;;;;;;;26.43;50.53;95899.50;604207;235;66839;-64
2022/11/24 02:54:30;;;;;;;;;;;;;;;26.43;49.10;95898.72;604169;235;65065;-65
2022/11/24 02:56:58;;;;;;;;;;;;;;;26.43;52.42;95898.72;604132;235;67237;-64
2022/11/24 02:59:27;;;;;;;;;;;;;;;26.40;50.53;95899.39;604241;235;66815;-65
2022/11/24 03:01:55;;;;;;;;;;;;;;;26.41;51.45;95898.26;604178;235;62944;-71
2022/11/24 03:04:22;;;;;;;;;;;;;;;26.39;49.37;95898.61;604182;235;66924;-71
2022/11/24 03:06:50;;;;;;;;;;;;;;;26.38;48.50;95898.93;604189;235;66771;-71
2022/11/24 03:09:17;;;;;;;;;;;;;;;26.38;50.01;95898.93;604171;235;65034;-71
2022/11/24 03:11:45;;;;;;;;;;;;;;;26.38;47.82;95904.31;604283;235;66517;-71
2022/11/24 03:14:12;;;;;;;;;;;;;;;26.35;49.17;95893.11;604209;235;66518;-71
2022/11/24 03:16:40;;;;;;;;;;;;;;;26.35;50.79;95909.27;604173;235;65064;-71
2022/11/24 03:19:07;;;;;;;;;;;;;;;26.34;48.53;95904.98;604083;235;66699;-71
2022/11/24 03:21:36;;;;;;;;;;;;;;;26.34;53.21;95902.29;604114;235;66602;-71
2022/11/24 03:24:03;;;;;;;;;;;;;;;26.33;49.87;95910.72;604191;232;65060;-71
2022/11/24 03:26:32;;;;;;;;;;;;;;;26.33;49.40;95916.11;603780;235;66966;-71
2022/11/24 03:29:00;;;;;;;;;;;;;;;26.31;51.41;95921.81;603769;235;66620;-71
2022/11/24 03:31:27;;;;;;;;;;;;;;;26.32;52.37;95920.68;604180;235;65065;-70
2022/11/24 03:33:55;;;;;;;;;;;;;;;26.31;50.75;95918.34;604006;234;66780;-71
2022/11/24 03:36:22;;;;;;;;;;;;;;;26.30;51.92;95919.44;603761;235;66581;-71
2022/11/24 03:38:50;;;;;;;;;;;;;;;26.28;50.66;95919.78;604217;235;65160;-71
2022/11/24 03:41:17;;;;;;;;;;;;;;;26.27;50.85;95926.30;604178;235;66903;-70
2022/11/24 03:43:45;;;;;;;;;;;;;;;26.26;50.08;95927.40;604162;235;67077;-71
2022/11/24 03:46:12;;;;;;;;;;;;;;;26.26;48.71;95926.62;604175;235;62942;-71
2022/11/24 03:48:40;;;;;;;;;;;;;;;26.26;50.01;95932.78;604186;235;66851;-65
2022/11/24 03:51:07;;;;;;;;;;;;;;;26.24;51.75;95935.02;604203;235;66847;-65
2022/11/24 03:53:35;;;;;;;;;;;;;;;26.23;50.01;95938.05;604179;235;65164;-65
2022/11/24 03:56:02;;;;;;;;;;;;;;;26.22;50.58;95931.89;604174;232;66889;-65
2022/11/24 03:58:30;;;;;;;;;;;;;;;26.22;52.66;95934.58;604184;235;66769;-65
2022/11/24 04:00:58;;;;;;;;;;;;;;;26.21;49.63;95935.68;604204;235;65032;-65
2022/11/24 04:03:26;;;;;;;;;;;;;;;26.21;51.92;95940.28;604189;235;66736;-65
2022/11/24 04:05:53;;;;;;;;;;;;;;;26.21;52.91;95943.77;604179;235;66870;-65
2022/11/24 04:08:21;;;;;;;;;;;;;;;26.21;53.44;95948.36;604148;235;65050;-65
2022/11/24 04:10:49;;;;;;;;;;;;;;;26.17;52.79;95950.94;604177;235;67241;-71
2022/11/24 04:13:18;;;;;;;;;;;;;;;26.16;51.38;95949.34;604182;235;66739;-71
2022/11/24 04:15:45;;;;;;;;;;;;;;;26.16;51.86;95953.95;604192;234;63011;-71
2022/11/24 04:18:13;;;;;;;;;;;;;;;26.17;50.31;95963.63;604140;235;64565;-71
2022/11/24 04:20:41;;;;;;;;;;;;;;;26.15;48.98;95963.94;604177;235;64800;-71
2022/11/24 04:23:09;;;;;;;;;;;;;;;26.14;50.89;95965.06;604134;232;62928;-71
2022/11/24 04:25:37;;;;;;;;;;;;;;;26.12;49.00;95965.38;604183;235;65094;-71
2022/11/24 04:28:04;;;;;;;;;;;;;;;26.11;51.98;95961.13;604199;235;64985;-70
2022/11/24 04:30:32;;;;;;;;;;;;;;;26.11;48.41;95968.42;604136;235;65164;-71
2022/11/24 04:33:00;;;;;;;;;;;;;;;26.12;51.84;95968.08;604068;234;67251;-71
2022/11/24 04:35:28;;;;;;;;;;;;;;;26.09;50.26;95971.43;604151;235;66900;-71
2022/11/24 04:37:55;;;;;;;;;;;;;;;26.09;51.69;95976.03;604138;235;65067;-71
2022/11/24 04:40:23;;;;;;;;;;;;;;;26.08;49.17;95977.13;604157;235;64785;-71
2022/11/24 04:42:54;;;;;;;;;;;;;;;26.08;50.04;95975.25;604184;235;64894;-71
2022/11/24 04:45:22;;;;;;;;;;;;;;;26.06;50.80;95972.09;604104;235;65127;-69
2022/11/24 04:47:49;;;;;;;;;;;;;;;26.06;50.48;95969.40;604148;235;67237;-69
2022/11/24 04:50:17;;;;;;;;;;;;;;;26.06;52.36;95971.31;604160;235;64699;-69
2022/11/24 04:52:44;;;;;;;;;;;;;;;26.05;51.19;95975.88;604157;235;63055;-69
2022/11/24 04:55:12;;;;;;;;;;;;;;;26.03;50.40;95972.75;604193;235;67246;-70
2022/11/24 04:57:39;;;;;;;;;;;;;;;26.03;50.75;95975.44;604081;235;67348;-69
2022/11/24 05:00:07;;;;;;;;;;;;;;;26.04;52.19;95973.53;604156;235;65053;-69
2022/11/24 05:02:36;;;;;;;;;;;;;;;26.02;49.84;95975.76;604147;235;65156;-69
2022/11/24 05:05:04;;;;;;;;;;;;;;;26.00;49.67;95984.18;604112;235;67047;-70
2022/11/24 05:07:32;;;;;;;;;;;;;;;26.00;48.70;95980.67;604193;235;62948;-69
2022/11/24 05:12:45;;;;;;;;;;;;;;;25.99;50.46;95987.97;604151;235;67146;-70
2022/11/24 05:15:12;;;;;;;;;;;;;;;25.99;50.71;95992.57;604170;235;65058;-70
2022/11/24 05:17:40;;;;;;;;;;;;;;;25.97;50.97;95990.19;604130;235;66918;-70
2022/11/24 05:20:08;;;;;;;;;;;;;;;25.96;51.28;95993.23;604115;235;64873;-70
2022/11/24 05:22:35;;;;;;;;;;;;;;;25.96;50.79;96002.09;604092;235;62869;-70
2022/11/24 05:25:03;;;;;;;;;;;;;;;25.94;50.65;96003.53;604082;235;66095;-70
2022/11/24 05:27:30;;;;;;;;;;;;;;;25.94;48.93;96009.70;604137;235;64883;-70
2022/11/24 05:29:58;;;;;;;;;;;;;;;25.93;50.37;96005.44;604147;235;62971;-69
2022/11/24 05:32:25;;;;;;;;;;;;;;;25.94;49.82;96000.84;604066;234;67348;-70
2022/11/24 05:34:53;;;;;;;;;;;;;;;25.94;53.14;96001.62;604239;235;64938;-70
2022/11/24 05:37:21;;;;;;;;;;;;;;;25.93;52.80;96010.83;604146;235;65033;-70
2022/11/24 05:39:48;;;;;;;;;;;;;;;25.93;51.21;96008.13;604178;235;67328;-70
2022/11/24 05:45:01;;;;;;;;;;;;;;;25.91;50.17;96008.45;604154;235;65137;-71
2022/11/24 05:47:28;;;;;;;;;;;;;;;25.92;50.71;96009.25;604124;235;67226;-72
2022/11/24 05:49:58;;;;;;;;;;;;;;;25.93;51.06;96004.66;604135;233;47382;-71
2022/11/24 05:52:25;;;;;;;;;;;;;;;25.94;52.11;96011.61;604175;235;65152;-71
2022/11/24 05:54:53;;;;;;;;;;;;;;;25.93;49.67;96015.42;604163;235;64946;-71
2022/11/24 05:57:21;;;;;;;;;;;;;;;25.94;50.65;96016.98;604178;235;66670;-71
2022/11/24 05:59:50;;;;;;;;;;;;;;;25.95;50.73;96018.59;604210;235;64857;-70
2022/11/24 06:02:17;;;;;;;;;;;;;;;25.96;54.93;96025.53;604184;232;67222;-71
2022/11/24 06:04:45;;;;;;;;;;;;;;;25.96;47.49;96036.30;604184;235;66829;-71
2022/11/24 06:07:13;;;;;;;;;;;;;;;25.97;48.91;96048.63;604180;235;63007;-71
2022/11/24 06:09:41;;;;;;;;;;;;;;;25.97;54.03;96054.02;604148;235;67241;-71
2022/11/24 06:12:10;;;;;;;;;;;;;;;25.98;47.66;96058.30;604130;235;67413;-71
2022/11/24 06:14:38;;;;;;;;;;;;;;;25.98;50.50;96061.78;604205;235;65050;-71
2022/11/24 06:17:06;;;;;;;;;;;;;;;25.98;48.21;96074.46;604138;235;65001;-71
2022/11/24 06:19:33;;;;;;;;;;;;;;;25.99;53.03;96079.50;604178;235;64972;-71
2022/11/24 06:22:01;;;;;;;;;;;;;;;25.99;50.88;96084.10;604164;235;65042;-71
2022/11/24 06:24:28;;;;;;;;;;;;;;;26.00;50.48;96085.67;604155;235;67205;-71
2022/11/24 06:26:56;;;;;;;;;;;;;;;26.00;50.65;96096.44;604228;235;64926;-71
2022/11/24 06:29:23;;;;;;;;;;;;;;;26.02;52.73;96111.16;604163;235;63796;-71
2022/11/24 06:31:51;;;;;;;;;;;;;;;26.03;52.54;96106.58;604143;235;66876;-71
2022/11/24 06:34:18;;;;;;;;;;;;;;;26.03;52.56;96111.97;604128;234;64961;-71
2022/11/24 06:36:46;;;;;;;;;;;;;;;26.02;51.96;96115.75;604151;235;62914;-71
2022/11/24 06:39:13;;;;;;;;;;;;;;;26.03;49.64;96117.34;604207;235;65250;-71
2022/11/24 06:41:41;;;;;;;;;;;;;;;26.04;51.03;96121.61;604170;235;64779;-71
2022/11/24 06:44:08;;;;;;;;;;;;;;;26.03;49.63;96122.73;604140;235;62917;-71
2022/11/24 06:46:36;;;;;;;;;;;;;;;26.05;54.72;96118.58;604140;235;64840;-71
2022/11/24 06:49:03;;;;;;;;;;;;;;;26.05;51.74;96129.34;604180;235;64940;-71
2022/11/24 06:51:31;;;;;;;;;;;;;;;26.06;53.17;96140.92;604216;235;62833;-69
2022/11/24 06:53:59;;;;;;;;;;;;;;;26.05;51.34;96140.11;604088;235;64914;-69
2022/11/24 06:56:26;;;;;;;;;;;;;;;26.07;49.53;96147.88;604059;235;67058;-71
2022/11/24 06:58:54;;;;;;;;;;;;;;;26.06;49.30;96151.70;604167;235;65031;-70
2022/11/24 07:01:23;;;;;;;;;;;;;;;26.08;53.12;96152.14;604124;235;65171;-71
2022/11/24 07:03:52;;;;;;;;;;;;;;;26.07;52.02;96154.05;604155;234;64855;-71
2022/11/24 07:06:20;;;;;;;;;;;;;;;26.07;44.53;96161.34;603456;232;65211;-71
2022/11/24 07:08:48;;;;;;;;;;;;;;;26.09;50.96;96164.51;603717;235;67283;-72
2022/11/24 07:11:17;;;;;;;;;;;;;;;26.08;52.64;96170.98;603731;235;66828;-72
2022/11/24 07:13:45;;;;;;;;;;;;;;;26.08;54.04;96173.68;603624;235;63028;-71
2022/11/24 07:16:17;;;;;;;;;;;;;;;26.08;54.77;96177.19;603550;235;67215;-71
2022/11/24 07:18:45;;;;;;;;;;;;;;;26.09;52.75;96186.05;603844;235;66516;-72
2022/11/24 07:21:13;;;;;;;;;;;;;;;26.09;53.89;96186.05;603677;235;65225;-71
2022/11/24 07:23:40;;;;;;;;;;;;;;;26.09;49.64;96184.14;603672;235;66894;-71
2022/11/24 07:26:08;;;;;;;;;;;;;;;26.11;50.70;96195.38;603683;235;64869;-71
2022/11/24 07:28:36;;;;;;;;;;;;;;;26.11;52.53;96195.38;603746;235;65046;-71
2022/11/24 07:31:07;;;;;;;;;;;;;;;26.13;53.15;96193.13;603762;235;64674;-71
2022/11/24 07:33:35;;;;;;;;;;;;;;;26.14;53.54;96196.64;604068;233;66892;-71
2022/11/24 07:36:04;;;;;;;;;;;;;;;26.15;53.50;96200.91;604278;234;65162;-72
2022/11/24 07:38:32;;;;;;;;;;;;;;;26.15;46.94;96208.98;604449;234;67034;-70
2022/11/24 07:41:04;;;;;;;;;;;;;;;26.19;54.27;96209.92;604353;234;67016;-71
2022/11/24 07:43:32;;;;;;;;;;;;;;;26.19;51.51;96212.63;604421;234;63855;-71
2022/11/24 07:46:00;;;;;;;;;;;;;;;26.22;52.60;96221.92;604390;234;64631;-71
2022/11/24 07:48:30;;;;;;;;;;;;;;;26.24;50.16;96220.49;604347;234;47980;-71
2022/11/24 07:51:03;;;;;;;;;;;;;;;26.25;52.86;96229.38;604369;234;65039;-71
2022/11/24 07:53:31;;;;;;;;;;;;;;;26.26;53.64;96231.73;604386;234;67477;-71
2022/11/24 07:55:59;;;;;;;;;;;;;;;26.27;53.96;96238.72;604321;234;67127;-72
2022/11/24 07:58:28;;;;;;;;;;;;;;;26.26;52.82;96234.43;604438;234;65115;-64
2022/11/24 08:00:56;;;;;;;;;;;;;;;26.27;52.44;96238.72;604138;234;65050;-64
2022/11/24 08:03:24;;;;;;;;;;;;;;;26.28;54.82;96242.98;604331;234;63929;-65
2022/11/24 08:05:58;;;;;;;;;;;;;;;26.28;51.99;96242.98;604305;234;65134;-64
2022/11/24 08:08:26;;;;;;;;;;;;;;;26.30;53.46;96246.16;604405;234;67983;-64
2022/11/24 08:10:54;;;;;;;;;;;;;;;26.29;53.92;96255.33;604325;234;66905;-60
2022/11/24 08:13:21;;;;;;;;;;;;;;;26.29;51.91;96255.33;604398;234;64911;-59
2022/11/24 08:15:49;;;;;;;;;;;;;;;26.30;52.81;96258.80;604270;234;64807;-65
2022/11/24 08:18:16;;;;;;;;;;;;;;;26.31;54.14;96260.41;604316;234;64844;-67
2022/11/24 08:20:44;;;;;;;;;;;;;;;26.29;53.12;96260.72;604400;234;63870;-64
2022/11/24 08:23:11;;;;;;;;;;;;;;;26.30;55.19;96267.70;604354;234;67295;-60
2022/11/24 08:25:38;;;;;;;;;;;;;;;26.29;54.24;96260.72;604416;234;67051;-60
2022/11/24 08:28:06;;;;;;;;;;;;;;;26.28;52.10;96261.84;604305;234;65051;-60
2022/11/24 08:30:33;;;;;;;;;;;;;;;26.29;53.40;96263.41;604337;234;67265;-64
2022/11/24 08:33:01;;;;;;;;;;;;;;;26.29;51.96;96263.41;604358;233;66962;-64
2022/11/24 08:35:28;;;;;;;;;;;;;;;26.28;54.06;96269.92;604395;234;62894;-64
2022/11/24 08:37:56;;;;;;;;;;;;;;;26.28;54.61;96271.83;604406;234;66752;-64
2022/11/24 08:40:23;;;;;;;;;;;;;;;26.26;51.52;96277.52;604336;234;67342;-64
2022/11/24 08:42:51;;;;;;;;;;;;;;;26.27;54.10;96272.92;604348;234;62976;-64
2022/11/24 08:45:19;;;;;;;;;;;;;;;26.25;53.22;96273.27;604303;234;67115;-64
2022/11/24 08:47:49;;;;;;;;;;;;;;;26.26;53.67;96287.52;604363;234;67054;-63
2022/11/24 08:50:18;;;;;;;;;;;;;;;26.26;53.90;96282.13;604415;234;65029;-65
2022/11/24 08:52:46;;;;;;;;;;;;;;;26.26;52.98;96288.30;604310;233;64882;-64
2022/11/24 08:55:13;;;;;;;;;;;;;;;26.25;53.43;96286.73;604328;234;67241;-64
2022/11/24 08:57:41;;;;;;;;;;;;;;;26.25;54.22;96288.64;604418;234;65150;-64
2022/11/24 09:00:09;;;;;;;;;;;;;;;26.24;53.19;96295.91;604311;234;67020;-64
2022/11/24 09:02:36;;;;;;;;;;;;;;;26.23;54.29;96294.33;604387;234;67029;-64
2022/11/24 09:05:04;;;;;;;;;;;;;;;26.23;54.99;96297.02;604348;234;65107;-63
2022/11/24 09:07:31;;;;;;;;;;;;;;;26.24;52.40;96297.81;604340;234;65224;-64
2022/11/24 09:09:59;;;;;;;;;;;;;;;26.24;53.49;96305.89;604370;234;66849;-64
2022/11/24 09:12:27;;;;;;;;;;;;;;;26.23;54.88;96293.55;604421;234;64958;-64
2022/11/24 09:14:54;;;;;;;;;;;;;;;26.22;52.05;96306.23;604379;234;64920;-60
2022/11/24 09:17:22;;;;;;;;;;;;;;;26.23;54.61;96298.94;604424;234;65002;-61
2022/11/24 09:19:49;;;;;;;;;;;;;;;26.21;50.47;96306.54;604403;234;64980;-65
2022/11/24 09:22:18;;;;;;;;;;;;;;;26.25;51.93;96305.58;604318;234;67072;-64
2022/11/24 09:24:45;;;;;;;;;;;;;;;26.25;51.64;96305.58;604428;234;67012;-65
2022/11/24 09:27:13;;;;;;;;;;;;;;;26.23;54.94;96309.70;604394;234;65033;-65
2022/11/24 09:29:40;;;;;;;;;;;;;;;26.23;51.47;96313.19;604315;234;67397;-65
2022/11/24 09:32:08;;;;;;;;;;;;;;;26.23;52.16;96309.70;604364;234;67059;-65
2022/11/24 09:34:35;;;;;;;;;;;;;;;26.25;53.01;96316.36;604359;233;65056;-65
2022/11/24 09:37:02;;;;;;;;;;;;;;;26.24;54.14;96317.45;604362;234;67225;-65
2022/11/24 09:39:30;;;;;;;;;;;;;;;26.23;51.05;96323.96;604412;234;64530;-65
2022/11/24 09:41:59;;;;;;;;;;;;;;;26.23;51.23;96318.58;604413;232;63102;-65
2022/11/24 09:44:28;;;;;;;;;;;;;;;26.24;51.42;96306.67;604156;234;65006;-66
2022/11/24 09:47:13;;;;;;;;;;;;;;;26.25;52.26;96310.19;604448;234;64809;-64
2022/11/24 09:49:52;;;;;;;;;;;;;;;26.22;52.92;96308.92;604347;234;64984;-64
2022/11/24 09:52:21;;;;;;;;;;;;;;;26.22;53.61;96317.00;604048;234;67167;-64
2022/11/24 09:54:56;;;;;;;;;;;;;;;26.21;54.40;96326.17;603641;234;65370;-64
2022/11/24 09:57:25;;;;;;;;;;;;;;;26.21;53.77;96318.09;604340;234;63103;-63
2022/11/24 09:59:55;;;;;;;;;;;;;;;26.21;55.71;96322.70;604406;234;67319;-63
2022/11/24 10:02:23;;;;;;;;;;;;;;;26.19;53.53;96323.03;604412;234;64805;-64
2022/11/24 10:04:53;;;;;;;;;;;;;;;26.21;53.31;96311.92;604287;234;63028;-63
2022/11/24 10:07:24;;;;;;;;;;;;;;;26.20;54.91;96307.66;604361;234;65078;-65
2022/11/24 10:10:05;;;;;;;;;;;;;;;26.20;53.95;96310.35;604297;234;64977;-64
2022/11/24 10:12:38;;;;;;;;;;;;;;;26.18;54.21;96305.28;604238;234;65160;-64
2022/11/24 10:15:26;;;;;;;;;;;;;;;26.19;55.73;96309.57;604465;234;66754;-64
2022/11/24 10:18:00;;;;;;;;;;;;;;;26.18;54.04;96302.58;604360;234;67052;-65
2022/11/24 10:20:30;;;;;;;;;;;;;;;26.14;52.34;96290.89;604146;234;65389;-65
2022/11/24 10:22:59;;;;;;;;;;;;;;;26.21;51.20;96299.24;604051;234;67292;-65
2022/11/24 10:25:44;;;;;;;;;;;;;;;26.22;52.51;96291.95;604378;234;66905;-64
2022/11/24 10:28:17;;;;;;;;;;;;;;;26.21;52.50;96307.32;604343;234;65268;-63
2022/11/24 10:30:44;;;;;;;;;;;;;;;26.23;52.88;96296.24;604440;233;67264;-64
2022/11/24 10:33:14;;;;;;;;;;;;;;;26.23;52.08;96294.33;604307;233;67133;-64
2022/11/24 10:35:58;;;;;;;;;;;;;;;26.25;50.63;96291.33;604424;234;63007;-64
2022/11/24 10:38:45;;;;;;;;;;;;;;;26.25;53.27;96292.11;604068;233;68111;-65
2022/11/24 10:41:14;;;;;;;;;;;;;;;26.27;53.65;96289.08;604351;233;64951;-66
2022/11/24 10:43:42;;;;;;;;;;;;;;;26.27;53.63;96294.47;604117;234;65325;-65
2022/11/24 10:46:14;;;;;;;;;;;;;;;26.27;54.35;96289.89;604312;234;67235;-65
2022/11/24 10:48:45;;;;;;;;;;;;;;;26.27;52.46;96291.77;604257;234;48302;-65
2022/11/24 10:51:32;;;;;;;;;;;;;;;26.26;51.40;96282.13;604327;234;62898;-66
2022/11/24 10:54:01;;;;;;;;;;;;;;;26.23;51.66;96288.16;604310;234;64849;-64
2022/11/24 10:56:30;;;;;;;;;;;;;;;26.20;51.05;96286.90;604327;234;64908;-63
2022/11/24 10:58:59;;;;;;;;;;;;;;;26.18;49.18;96285.64;604099;234;65055;-63
2022/11/24 11:01:31;;;;;;;;;;;;;;;26.16;51.49;96294.03;603653;234;67325;-65
2022/11/24 11:04:00;;;;;;;;;;;;;;;26.16;51.37;96294.03;604499;234;64630;-64
2022/11/24 11:06:29;;;;;;;;;;;;;;;26.15;51.95;96289.77;604312;234;65015;-64
2022/11/24 11:09:01;;;;;;;;;;;;;;;26.15;51.21;96287.08;604348;234;64908;-65
2022/11/24 11:11:29;;;;;;;;;;;;;;;26.16;52.27;96288.64;603195;234;65119;-63
2022/11/24 11:14:04;;;;;;;;;;;;;;;26.17;51.18;96287.55;604363;234;65045;-63
2022/11/24 11:16:39;;;;;;;;;;;;;;;26.19;53.79;96293.41;604361;234;67270;-64
2022/11/24 11:19:24;;;;;;;;;;;;;;;26.18;52.63;96293.72;604413;234;67051;-63
2022/11/24 11:22:02;;;;;;;;;;;;;;;26.17;51.29;96290.24;604348;234;62945;-65
2022/11/24 11:24:30;;;;;;;;;;;;;;;26.16;50.27;96288.64;604401;232;67307;-64
2022/11/24 11:27:02;;;;;;;;;;;;;;;26.16;51.01;96293.24;604409;234;66782;-66
2022/11/24 11:29:30;;;;;;;;;;;;;;;26.17;49.20;96292.15;604331;234;63055;-64
2022/11/24 11:31:59;;;;;;;;;;;;;;;26.16;50.33;96293.24;604398;234;66742;-65
2022/11/24 11:34:28;;;;;;;;;;;;;;;26.17;51.88;96294.84;604445;233;66861;-65
2022/11/24 11:36:58;;;;;;;;;;;;;;;26.16;52.28;96299.41;604304;234;70876;-67
2022/11/24 11:39:39;;;;;;;;;;;;;;;26.15;51.94;96297.84;604382;234;67194;-66
2022/11/24 11:42:08;;;;;;;;;;;;;;;26.16;51.23;96293.24;604350;234;67880;-65
2022/11/24 11:44:40;;;;;;;;;;;;;;;26.17;50.42;96301.02;604267;233;65106;-65
2022/11/24 11:47:09;;;;;;;;;;;;;;;26.17;50.08;96303.70;604104;234;66863;-61
2022/11/24 11:49:38;;;;;;;;;;;;;;;26.18;51.15;96301.80;604284;234;66858;-66
2022/11/24 11:52:16;;;;;;;;;;;;;;;26.19;52.47;96304.19;604311;234;62973;-66
2022/11/24 11:55:02;;;;;;;;;;;;;;;26.20;53.89;96302.27;604382;234;67109;-66
2022/11/24 11:57:48;;;;;;;;;;;;;;;26.20;52.17;96292.28;604356;234;65201;-66
2022/11/24 12:00:17;;;;;;;;;;;;;;;26.19;53.04;96296.11;604335;232;63123;-65
2022/11/24 12:02:55;;;;;;;;;;;;;;;26.19;55.98;96304.19;604386;234;65103;-64
2022/11/24 12:05:27;;;;;;;;;;;;;;;26.19;55.34;96297.98;604300;234;65022;-65
2022/11/24 12:07:57;;;;;;;;;;;;;;;26.19;52.09;96290.72;604352;234;65233;-65
2022/11/24 12:10:42;;;;;;;;;;;;;;;26.19;52.00;96301.49;604173;234;67227;-65
2022/11/24 12:13:28;;;;;;;;;;;;;;;26.21;50.32;96307.32;603048;234;66820;-65
2022/11/24 12:15:57;;;;;;;;;;;;;;;26.22;51.29;96316.19;603242;235;63161;-63
2022/11/24 12:18:26;;;;;;;;;;;;;;;26.21;49.57;96320.00;602844;235;67252;-65
2022/11/24 12:20:58;;;;;;;;;;;;;;;26.21;50.40;96322.70;603124;235;66777;-66
2022/11/24 12:23:42;;;;;;;;;;;;;;;26.21;54.97;96320.79;610954;232;65001;-66
2022/11/24 12:26:15;;;;;;;;;;;;;;;26.20;45.51;96321.91;610937;232;67247;-64
2022/11/24 12:28:53;;;;;;;;;;;;;;;26.23;45.74;96325.87;599337;232;67261;-65
2022/11/24 12:31:22;;;;;;;;;;;;;;;26.25;49.43;96327.13;591110;240;63183;-64
2022/11/24 12:34:07;;;;;;;;;;;;;;;26.27;52.25;96332.17;604237;232;67412;-62
2022/11/24 12:36:36;;;;;;;;;;;;;;;26.28;52.00;96326.48;607193;233;65064;-67
2022/11/24 12:39:05;;;;;;;;;;;;;;;26.27;48.04;96327.61;607188;233;63024;-64
2022/11/24 12:41:40;;;;;;;;;;;;;;;26.30;52.64;96328.84;606395;233;67402;-65
2022/11/24 12:44:09;;;;;;;;;;;;;;;26.30;53.53;96337.73;605944;233;67021;-65
2022/11/24 12:46:38;;;;;;;;;;;;;;;26.31;52.99;96336.61;605080;233;65111;-66
2022/11/24 12:49:14;;;;;;;;;;;;;;;26.31;53.98;96330.44;606048;233;66761;-65
2022/11/24 12:51:43;;;;;;;;;;;;;;;26.32;53.74;96346.26;606045;233;64883;-65
2022/11/24 12:54:11;;;;;;;;;;;;;;;26.32;51.76;96335.48;606870;233;64916;-67
2022/11/24 12:56:41;;;;;;;;;;;;;;;26.33;54.35;96339.78;606663;233;67575;-66
2022/11/24 12:59:12;;;;;;;;;;;;;;;26.34;53.77;96329.79;600147;232;64802;-66
2022/11/24 13:01:41;;;;;;;;;;;;;;;26.34;53.01;96341.34;607071;233;65043;-67
2022/11/24 13:04:19;;;;;;;;;;;;;;;26.35;53.84;96340.25;607060;233;67239;-66